sensor_id;sensor_type;location;lat;lon;timestamp;pressure;altitude;pressure_sealevel;temperature;humidity
12213;BME280;6169;44.158;22.788;2023-05-19T00:00:03;101285.75;;;16.94;65.89
12213;BME280;6169;44.158;22.788;2023-05-19T00:05:07;101273.25;;;17.19;64.44
12213;BME280;6169;44.158;22.788;2023-05-19T00:10:12;101274.63;;;17.16;64.72
12213;BME280;6169;44.158;22.788;2023-05-19T00:15:16;101284.75;;;17.15;64.44
12213;BME280;6169;44.158;22.788;2023-05-19T00:20:18;101278.44;;;16.67;66.25
12213;BME280;6169;44.158;22.788;2023-05-19T00:25:21;101275.75;;;16.78;66.48
12213;BME280;6169;44.158;22.788;2023-05-19T00:30:24;101283.72;;;16.79;66.62
12213;BME280;6169;44.158;22.788;2023-05-19T00:35:26;101276.66;;;16.51;66.85
12213;BME280;6169;44.158;22.788;2023-05-19T00:40:30;101283.22;;;16.82;66.27
12213;BME280;6169;44.158;22.788;2023-05-19T00:45:34;101288.72;;;16.87;65.69
12213;BME280;6169;44.158;22.788;2023-05-19T00:50:37;101276.75;;;16.61;66.10
12213;BME280;6169;44.158;22.788;2023-05-19T00:55:39;101283.53;;;16.21;67.81
12213;BME280;6169;44.158;22.788;2023-05-19T01:00:43;101272.84;;;16.52;66.32
12213;BME280;6169;44.158;22.788;2023-05-19T01:05:46;101278.84;;;16.49;66.11
12213;BME280;6169;44.158;22.788;2023-05-19T01:10:49;101271.53;;;16.60;65.09
12213;BME280;6169;44.158;22.788;2023-05-19T01:16:00;101243.78;;;16.24;65.30
12213;BME280;6169;44.158;22.788;2023-05-19T01:27:00;101274.19;;;16.22;65.38
12213;BME280;6169;44.158;22.788;2023-05-19T01:32:09;101264.53;;;16.42;64.84
12213;BME280;6169;44.158;22.788;2023-05-19T01:37:13;101271.63;;;16.38;65.13
12213;BME280;6169;44.158;22.788;2023-05-19T01:42:16;101268.13;;;16.15;65.54
12213;BME280;6169;44.158;22.788;2023-05-19T01:47:20;101280.00;;;15.72;67.19
12213;BME280;6169;44.158;22.788;2023-05-19T01:52:23;101293.22;;;16.02;66.29
12213;BME280;6169;44.158;22.788;2023-05-19T01:57:32;101290.84;;;16.11;66.32
12213;BME280;6169;44.158;22.788;2023-05-19T02:02:48;101295.75;;;16.09;65.98
12213;BME280;6169;44.158;22.788;2023-05-19T02:08:01;101303.72;;;15.83;66.81
12213;BME280;6169;44.158;22.788;2023-05-19T02:13:09;101306.53;;;16.15;66.38
12213;BME280;6169;44.158;22.788;2023-05-19T02:18:14;101296.09;;;16.44;64.46
12213;BME280;6169;44.158;22.788;2023-05-19T02:23:17;101306.69;;;16.36;65.01
12213;BME280;6169;44.158;22.788;2023-05-19T02:28:19;101308.22;;;16.21;65.13
12213;BME280;6169;44.158;22.788;2023-05-19T02:33:23;101302.38;;;16.40;64.38
12213;BME280;6169;44.158;22.788;2023-05-19T02:38:25;101301.28;;;16.41;64.58
12213;BME280;6169;44.158;22.788;2023-05-19T02:43:27;101322.03;;;16.32;65.21
12213;BME280;6169;44.158;22.788;2023-05-19T02:48:31;101321.75;;;16.60;64.64
12213;BME280;6169;44.158;22.788;2023-05-19T02:53:34;101327.09;;;16.45;64.44
12213;BME280;6169;44.158;22.788;2023-05-19T02:58:37;101330.38;;;16.42;65.15
12213;BME280;6169;44.158;22.788;2023-05-19T03:03:40;101347.09;;;16.73;64.01
12213;BME280;6169;44.158;22.788;2023-05-19T03:08:43;101338.91;;;16.78;64.07
12213;BME280;6169;44.158;22.788;2023-05-19T03:13:45;101329.72;;;16.62;64.44
12213;BME280;6169;44.158;22.788;2023-05-19T03:18:49;101191.47;;;15.71;65.27
12213;BME280;6169;44.158;22.788;2023-05-19T03:23:51;101328.97;;;16.39;65.65
12213;BME280;6169;44.158;22.788;2023-05-19T03:28:54;101329.47;;;16.63;65.18
12213;BME280;6169;44.158;22.788;2023-05-19T03:33:57;101344.25;;;16.62;65.30
12213;BME280;6169;44.158;22.788;2023-05-19T03:39:00;101356.53;;;16.87;63.60
12213;BME280;6169;44.158;22.788;2023-05-19T03:44:02;101339.97;;;16.39;65.74
12213;BME280;6169;44.158;22.788;2023-05-19T03:49:05;101351.25;;;16.43;66.13
12213;BME280;6169;44.158;22.788;2023-05-19T03:54:08;101351.09;;;16.92;64.34
12213;BME280;6169;44.158;22.788;2023-05-19T03:59:10;101360.50;;;17.44;61.99
12213;BME280;6169;44.158;22.788;2023-05-19T04:04:14;101366.06;;;17.11;62.74
12213;BME280;6169;44.158;22.788;2023-05-19T04:09:16;101371.13;;;17.25;62.37
12213;BME280;6169;44.158;22.788;2023-05-19T04:14:19;101373.56;;;17.21;62.77
12213;BME280;6169;44.158;22.788;2023-05-19T04:19:22;101388.19;;;17.32;61.91
12213;BME280;6169;44.158;22.788;2023-05-19T04:24:24;101377.13;;;17.74;61.35
12213;BME280;6169;44.158;22.788;2023-05-19T04:29:27;101375.22;;;17.22;63.79
12213;BME280;6169;44.158;22.788;2023-05-19T04:34:31;101224.88;;;16.65;62.71
12213;BME280;6169;44.158;22.788;2023-05-19T04:39:33;101387.34;;;17.79;61.61
12213;BME280;6169;44.158;22.788;2023-05-19T04:44:38;101384.97;;;17.98;61.68
12213;BME280;6169;44.158;22.788;2023-05-19T04:49:42;101388.94;;;17.75;62.47
12213;BME280;6169;44.158;22.788;2023-05-19T04:54:44;101384.78;;;17.62;63.38
12213;BME280;6169;44.158;22.788;2023-05-19T04:59:46;101391.44;;;17.24;64.83
12213;BME280;6169;44.158;22.788;2023-05-19T05:04:50;101410.34;;;16.83;67.21
12213;BME280;6169;44.158;22.788;2023-05-19T05:09:53;101398.50;;;17.57;64.42
12213;BME280;6169;44.158;22.788;2023-05-19T05:14:56;101401.72;;;17.44;65.56
12213;BME280;6169;44.158;22.788;2023-05-19T05:20:02;101404.47;;;17.44;65.11
12213;BME280;6169;44.158;22.788;2023-05-19T05:25:07;101392.63;;;17.33;66.09
12213;BME280;6169;44.158;22.788;2023-05-19T05:30:09;101386.03;;;16.97;67.81
12213;BME280;6169;44.158;22.788;2023-05-19T05:35:13;101384.63;;;16.94;67.78
12213;BME280;6169;44.158;22.788;2023-05-19T05:40:16;101372.09;;;17.08;67.82
12213;BME280;6169;44.158;22.788;2023-05-19T05:45:18;101382.09;;;17.77;65.90
12213;BME280;6169;44.158;22.788;2023-05-19T05:50:22;101385.28;;;17.54;66.50
12213;BME280;6169;44.158;22.788;2023-05-19T05:55:25;101396.16;;;17.86;65.50
12213;BME280;6169;44.158;22.788;2023-05-19T06:00:28;101402.31;;;18.14;64.99
12213;BME280;6169;44.158;22.788;2023-05-19T06:05:31;101405.09;;;18.19;64.25
12213;BME280;6169;44.158;22.788;2023-05-19T06:10:33;101420.06;;;19.15;61.38
12213;BME280;6169;44.158;22.788;2023-05-19T06:15:38;101421.69;;;19.36;60.14
12213;BME280;6169;44.158;22.788;2023-05-19T06:20:42;101433.84;;;19.15;60.52
12213;BME280;6169;44.158;22.788;2023-05-19T06:25:44;101398.00;;;19.10;59.75
12213;BME280;6169;44.158;22.788;2023-05-19T06:30:46;101429.34;;;19.75;58.77
12213;BME280;6169;44.158;22.788;2023-05-19T06:35:50;101436.03;;;20.24;60.20
12213;BME280;6169;44.158;22.788;2023-05-19T06:40:52;101293.97;;;19.56;57.00
12213;BME280;6169;44.158;22.788;2023-05-19T06:45:54;101444.78;;;21.15;53.59
12213;BME280;6169;44.158;22.788;2023-05-19T06:50:58;101450.44;;;21.05;53.13
12213;BME280;6169;44.158;22.788;2023-05-19T06:56:00;101445.22;;;20.54;54.70
12213;BME280;6169;44.158;22.788;2023-05-19T07:01:02;101445.53;;;20.52;55.82
12213;BME280;6169;44.158;22.788;2023-05-19T07:06:07;101450.25;;;20.46;55.02
12213;BME280;6169;44.158;22.788;2023-05-19T07:11:09;101457.53;;;20.77;52.22
12213;BME280;6169;44.158;22.788;2023-05-19T07:16:12;101454.81;;;20.66;53.06
12213;BME280;6169;44.158;22.788;2023-05-19T07:21:15;101453.81;;;21.26;51.65
12213;BME280;6169;44.158;22.788;2023-05-19T07:26:17;101452.34;;;21.04;50.87
12213;BME280;6169;44.158;22.788;2023-05-19T07:31:20;101444.50;;;21.16;49.54
12213;BME280;6169;44.158;22.788;2023-05-19T07:36:24;101436.00;;;21.37;49.32
12213;BME280;6169;44.158;22.788;2023-05-19T07:41:26;101439.66;;;22.04;47.81
12213;BME280;6169;44.158;22.788;2023-05-19T07:46:29;101434.28;;;22.37;44.79
12213;BME280;6169;44.158;22.788;2023-05-19T07:51:32;101430.66;;;22.18;45.30
12213;BME280;6169;44.158;22.788;2023-05-19T07:56:34;101434.97;;;23.00;45.67
12213;BME280;6169;44.158;22.788;2023-05-19T08:01:37;101429.63;;;22.52;44.57
12213;BME280;6169;44.158;22.788;2023-05-19T08:06:40;101441.94;;;22.78;43.45
12213;BME280;6169;44.158;22.788;2023-05-19T08:11:44;101441.94;;;23.30;42.48
12213;BME280;6169;44.158;22.788;2023-05-19T08:16:46;101444.97;;;23.14;43.87
12213;BME280;6169;44.158;22.788;2023-05-19T08:21:50;101447.63;;;23.94;41.60
12213;BME280;6169;44.158;22.788;2023-05-19T08:26:52;101446.88;;;23.00;42.89
12213;BME280;6169;44.158;22.788;2023-05-19T08:31:54;101449.47;;;23.57;42.77
12213;BME280;6169;44.158;22.788;2023-05-19T08:36:59;101448.06;;;23.87;41.28
12213;BME280;6169;44.158;22.788;2023-05-19T08:42:01;101446.50;;;24.45;37.54
12213;BME280;6169;44.158;22.788;2023-05-19T08:47:04;101446.41;;;23.72;39.10
12213;BME280;6169;44.158;22.788;2023-05-19T08:52:21;101442.53;;;24.37;41.02
12213;BME280;6169;44.158;22.788;2023-05-19T08:57:27;101437.06;;;24.46;40.82
12213;BME280;6169;44.158;22.788;2023-05-19T09:02:29;101450.19;;;25.13;36.81
12213;BME280;6169;44.158;22.788;2023-05-19T09:07:35;101443.94;;;25.07;36.33
12213;BME280;6169;44.158;22.788;2023-05-19T09:12:37;101440.38;;;24.70;38.35
12213;BME280;6169;44.158;22.788;2023-05-19T09:17:40;101417.50;;;24.51;37.15
12213;BME280;6169;44.158;22.788;2023-05-19T09:22:46;101433.31;;;24.64;37.24
12213;BME280;6169;44.158;22.788;2023-05-19T09:27:48;101427.03;;;25.04;36.71
12213;BME280;6169;44.158;22.788;2023-05-19T09:32:51;101421.44;;;24.59;38.19
12213;BME280;6169;44.158;22.788;2023-05-19T09:37:54;101419.81;;;25.25;37.37
12213;BME280;6169;44.158;22.788;2023-05-19T09:42:56;101408.38;;;25.67;35.17
12213;BME280;6169;44.158;22.788;2023-05-19T09:48:02;101416.53;;;26.20;35.27
12213;BME280;6169;44.158;22.788;2023-05-19T09:53:06;101412.44;;;26.61;36.12
12213;BME280;6169;44.158;22.788;2023-05-19T09:58:09;101401.63;;;26.60;35.82
12213;BME280;6169;44.158;22.788;2023-05-19T10:03:11;101400.78;;;26.24;34.58
12213;BME280;6169;44.158;22.788;2023-05-19T10:08:16;101401.88;;;25.89;35.24
12213;BME280;6169;44.158;22.788;2023-05-19T10:13:18;101393.34;;;27.07;33.73
12213;BME280;6169;44.158;22.788;2023-05-19T10:18:24;101374.03;;;27.02;33.38
12213;BME280;6169;44.158;22.788;2023-05-19T10:23:28;101383.22;;;26.93;33.95
12213;BME280;6169;44.158;22.788;2023-05-19T10:28:34;101393.22;;;27.42;31.35
12213;BME280;6169;44.158;22.788;2023-05-19T10:33:45;101381.63;;;26.49;31.79
12213;BME280;6169;44.158;22.788;2023-05-19T10:38:57;101375.44;;;27.17;32.45
12213;BME280;6169;44.158;22.788;2023-05-19T10:44:06;101378.09;;;27.13;31.67
12213;BME280;6169;44.158;22.788;2023-05-19T10:49:19;101382.56;;;26.97;31.33
12213;BME280;6169;44.158;22.788;2023-05-19T10:54:40;101372.38;;;27.39;30.91
12213;BME280;6169;44.158;22.788;2023-05-19T10:59:43;101361.34;;;27.51;31.16
12213;BME280;6169;44.158;22.788;2023-05-19T11:04:46;101357.06;;;27.54;30.30
12213;BME280;6169;44.158;22.788;2023-05-19T11:09:52;101347.81;;;26.59;32.34
12213;BME280;6169;44.158;22.788;2023-05-19T11:14:56;101355.97;;;26.99;31.56
12213;BME280;6169;44.158;22.788;2023-05-19T11:20:00;101346.63;;;27.63;31.49
12213;BME280;6169;44.158;22.788;2023-05-19T11:25:05;101350.56;;;27.92;31.45
12213;BME280;6169;44.158;22.788;2023-05-19T11:30:09;101355.88;;;27.85;30.47
12213;BME280;6169;44.158;22.788;2023-05-19T11:35:15;101350.78;;;27.57;30.89
12213;BME280;6169;44.158;22.788;2023-05-19T11:40:22;101357.16;;;27.87;29.36
12213;BME280;6169;44.158;22.788;2023-05-19T11:45:25;101350.03;;;28.40;29.86
12213;BME280;6169;44.158;22.788;2023-05-19T11:50:27;101341.59;;;28.61;29.89
12213;BME280;6169;44.158;22.788;2023-05-19T11:55:31;101340.66;;;29.15;28.02
12213;BME280;6169;44.158;22.788;2023-05-19T12:00:36;101336.56;;;28.88;28.54
12213;BME280;6169;44.158;22.788;2023-05-19T12:05:42;101333.25;;;30.09;28.52
12213;BME280;6169;44.158;22.788;2023-05-19T12:10:48;101326.91;;;29.71;27.34
12213;BME280;6169;44.158;22.788;2023-05-19T12:15:51;101318.41;;;29.31;28.01
12213;BME280;6169;44.158;22.788;2023-05-19T12:20:53;101323.13;;;29.92;27.59
12213;BME280;6169;44.158;22.788;2023-05-19T12:25:58;101313.66;;;30.24;25.69
12213;BME280;6169;44.158;22.788;2023-05-19T12:31:01;101310.44;;;29.45;27.05
12213;BME280;6169;44.158;22.788;2023-05-19T12:36:04;101314.00;;;28.39;27.34
12213;BME280;6169;44.158;22.788;2023-05-19T12:41:11;101309.59;;;28.38;28.84
12213;BME280;6169;44.158;22.788;2023-05-19T12:46:14;101290.88;;;27.75;28.41
12213;BME280;6169;44.158;22.788;2023-05-19T12:51:17;101288.16;;;28.09;28.21
12213;BME280;6169;44.158;22.788;2023-05-19T12:56:24;101283.34;;;27.46;28.65
12213;BME280;6169;44.158;22.788;2023-05-19T13:01:28;101284.53;;;28.08;29.41
12213;BME280;6169;44.158;22.788;2023-05-19T13:06:31;101277.63;;;28.26;30.56
12213;BME280;6169;44.158;22.788;2023-05-19T13:11:35;101279.81;;;28.21;30.25
12213;BME280;6169;44.158;22.788;2023-05-19T13:16:37;101274.25;;;27.58;29.70
12213;BME280;6169;44.158;22.788;2023-05-19T13:21:39;101269.63;;;28.04;29.55
12213;BME280;6169;44.158;22.788;2023-05-19T13:26:43;101271.16;;;28.47;28.00
12213;BME280;6169;44.158;22.788;2023-05-19T13:31:45;101280.53;;;28.63;28.16
12213;BME280;6169;44.158;22.788;2023-05-19T13:36:48;101275.94;;;28.46;28.75
12213;BME280;6169;44.158;22.788;2023-05-19T13:41:51;101293.13;;;28.57;28.30
12213;BME280;6169;44.158;22.788;2023-05-19T13:46:54;101292.09;;;28.29;29.37
12213;BME280;6169;44.158;22.788;2023-05-19T13:51:56;101298.44;;;27.96;28.55
12213;BME280;6169;44.158;22.788;2023-05-19T13:57:00;101292.50;;;27.76;28.23
12213;BME280;6169;44.158;22.788;2023-05-19T14:02:03;101295.38;;;28.10;26.54
12213;BME280;6169;44.158;22.788;2023-05-19T14:07:06;101309.03;;;27.31;27.55
12213;BME280;6169;44.158;22.788;2023-05-19T14:12:11;101303.72;;;28.64;27.23
12213;BME280;6169;44.158;22.788;2023-05-19T14:17:13;101314.00;;;28.39;28.72
12213;BME280;6169;44.158;22.788;2023-05-19T14:22:15;101314.13;;;26.99;29.66
12213;BME280;6169;44.158;22.788;2023-05-19T14:27:20;101320.56;;;28.43;29.29
12213;BME280;6169;44.158;22.788;2023-05-19T14:32:22;101325.50;;;26.77;31.55
12213;BME280;6169;44.158;22.788;2023-05-19T14:37:25;101320.94;;;25.94;33.02
12213;BME280;6169;44.158;22.788;2023-05-19T14:42:30;101332.59;;;25.96;31.23
12213;BME280;6169;44.158;22.788;2023-05-19T14:47:32;101325.38;;;26.30;29.78
12213;BME280;6169;44.158;22.788;2023-05-19T14:52:34;101326.13;;;26.91;30.25
12213;BME280;6169;44.158;22.788;2023-05-19T14:57:38;101321.78;;;26.03;31.77
12213;BME280;6169;44.158;22.788;2023-05-19T15:02:40;101330.81;;;26.09;32.33
12213;BME280;6169;44.158;22.788;2023-05-19T15:07:42;101334.66;;;25.64;32.89
12213;BME280;6169;44.158;22.788;2023-05-19T15:12:46;101333.56;;;26.35;33.01
12213;BME280;6169;44.158;22.788;2023-05-19T15:17:48;101334.09;;;26.45;33.13
12213;BME280;6169;44.158;22.788;2023-05-19T15:22:50;101353.34;;;26.85;30.62
12213;BME280;6169;44.158;22.788;2023-05-19T15:27:54;101361.25;;;25.96;30.57
12213;BME280;6169;44.158;22.788;2023-05-19T15:32:56;101367.94;;;24.98;32.56
12213;BME280;6169;44.158;22.788;2023-05-19T15:37:59;101362.81;;;23.60;35.47
12213;BME280;6169;44.158;22.788;2023-05-19T15:43:07;101365.38;;;24.34;35.77
12213;BME280;6169;44.158;22.788;2023-05-19T15:48:09;101370.47;;;24.18;36.88
12213;BME280;6169;44.158;22.788;2023-05-19T15:53:11;101366.13;;;24.26;36.53
12213;BME280;6169;44.158;22.788;2023-05-19T15:58:15;101364.81;;;24.46;37.25
12213;BME280;6169;44.158;22.788;2023-05-19T16:03:17;101359.22;;;23.73;38.16
12213;BME280;6169;44.158;22.788;2023-05-19T16:08:22;101348.41;;;23.03;39.17
12213;BME280;6169;44.158;22.788;2023-05-19T16:13:25;101356.16;;;23.47;38.46
12213;BME280;6169;44.158;22.788;2023-05-19T16:18:29;101364.06;;;23.68;39.06
12213;BME280;6169;44.158;22.788;2023-05-19T16:23:32;101358.13;;;23.47;39.56
12213;BME280;6169;44.158;22.788;2023-05-19T16:28:35;101355.59;;;23.17;41.24
12213;BME280;6169;44.158;22.788;2023-05-19T16:33:38;101332.88;;;22.88;41.90
12213;BME280;6169;44.158;22.788;2023-05-19T16:38:40;101338.03;;;22.76;42.60
12213;BME280;6169;44.158;22.788;2023-05-19T16:43:44;101334.78;;;22.74;42.48
12213;BME280;6169;44.158;22.788;2023-05-19T16:48:46;101327.22;;;22.79;42.21
12213;BME280;6169;44.158;22.788;2023-05-19T16:53:49;101318.53;;;22.67;42.65
12213;BME280;6169;44.158;22.788;2023-05-19T16:58:52;101322.22;;;23.09;41.51
12213;BME280;6169;44.158;22.788;2023-05-19T17:03:55;101331.34;;;22.30;44.22
12213;BME280;6169;44.158;22.788;2023-05-19T17:08:57;101325.31;;;21.66;46.88
12213;BME280;6169;44.158;22.788;2023-05-19T17:14:01;101325.47;;;22.13;45.52
12213;BME280;6169;44.158;22.788;2023-05-19T17:19:07;101310.31;;;21.48;45.96
12213;BME280;6169;44.158;22.788;2023-05-19T17:24:09;101329.38;;;21.93;45.60
12213;BME280;6169;44.158;22.788;2023-05-19T17:29:14;101327.28;;;22.03;45.93
12213;BME280;6169;44.158;22.788;2023-05-19T17:34:16;101306.41;;;21.92;46.50
12213;BME280;6169;44.158;22.788;2023-05-19T17:39:18;101327.56;;;21.83;47.18
12213;BME280;6169;44.158;22.788;2023-05-19T17:44:22;101354.63;;;22.29;44.99
12213;BME280;6169;44.158;22.788;2023-05-19T17:49:24;101330.06;;;21.60;48.58
12213;BME280;6169;44.158;22.788;2023-05-19T17:54:27;101326.25;;;21.32;49.19
12213;BME280;6169;44.158;22.788;2023-05-19T17:59:32;101333.53;;;21.71;48.99
12213;BME280;6169;44.158;22.788;2023-05-19T18:04:35;101353.56;;;22.25;47.48
12213;BME280;6169;44.158;22.788;2023-05-19T18:09:42;101363.53;;;22.26;47.76
12213;BME280;6169;44.158;22.788;2023-05-19T18:14:47;101354.00;;;22.51;46.79
12213;BME280;6169;44.158;22.788;2023-05-19T18:19:50;101374.22;;;22.33;47.89
12213;BME280;6169;44.158;22.788;2023-05-19T18:24:53;101382.25;;;22.67;47.19
12213;BME280;6169;44.158;22.788;2023-05-19T18:29:58;101375.72;;;22.25;48.13
12213;BME280;6169;44.158;22.788;2023-05-19T18:35:00;101389.56;;;22.63;47.52
12213;BME280;6169;44.158;22.788;2023-05-19T18:40:04;101410.66;;;22.59;48.75
12213;BME280;6169;44.158;22.788;2023-05-19T18:45:09;101415.63;;;22.00;49.50
12213;BME280;6169;44.158;22.788;2023-05-19T18:50:12;101440.44;;;21.86;49.75
12213;BME280;6169;44.158;22.788;2023-05-19T18:55:14;101444.13;;;21.81;49.42
12213;BME280;6169;44.158;22.788;2023-05-19T19:00:19;101437.22;;;21.55;50.40
12213;BME280;6169;44.158;22.788;2023-05-19T19:05:21;101447.69;;;21.29;51.70
12213;BME280;6169;44.158;22.788;2023-05-19T19:10:24;101438.56;;;21.57;50.67
12213;BME280;6169;44.158;22.788;2023-05-19T19:15:28;101453.47;;;21.62;50.69
12213;BME280;6169;44.158;22.788;2023-05-19T19:20:31;101447.22;;;21.51;51.22
12213;BME280;6169;44.158;22.788;2023-05-19T19:25:33;101454.63;;;20.97;53.63
12213;BME280;6169;44.158;22.788;2023-05-19T19:30:37;101450.97;;;21.36;52.69
12213;BME280;6169;44.158;22.788;2023-05-19T19:35:39;101451.28;;;21.29;52.02
12213;BME280;6169;44.158;22.788;2023-05-19T19:40:43;101485.47;;;21.09;52.61
12213;BME280;6169;44.158;22.788;2023-05-19T19:45:47;101546.25;;;21.14;52.83
12213;BME280;6169;44.158;22.788;2023-05-19T19:50:52;101540.81;;;21.38;51.76
12213;BME280;6169;44.158;22.788;2023-05-19T19:55:55;101551.72;;;20.80;53.11
12213;BME280;6169;44.158;22.788;2023-05-19T20:01:01;101541.91;;;20.54;55.07
12213;BME280;6169;44.158;22.788;2023-05-19T20:06:03;101561.69;;;21.21;52.83
12213;BME280;6169;44.158;22.788;2023-05-19T20:11:07;101564.34;;;21.36;53.02
12213;BME280;6169;44.158;22.788;2023-05-19T20:16:11;101590.03;;;21.42;52.46
12213;BME280;6169;44.158;22.788;2023-05-19T20:21:13;101567.81;;;21.17;52.20
12213;BME280;6169;44.158;22.788;2023-05-19T20:26:15;101549.25;;;21.18;51.15
12213;BME280;6169;44.158;22.788;2023-05-19T20:31:19;101549.25;;;21.18;51.17
12213;BME280;6169;44.158;22.788;2023-05-19T20:36:23;101549.53;;;21.22;50.93
12213;BME280;6169;44.158;22.788;2023-05-19T20:41:25;101545.56;;;21.33;49.81
12213;BME280;6169;44.158;22.788;2023-05-19T20:46:29;101539.91;;;21.14;49.17
12213;BME280;6169;44.158;22.788;2023-05-19T20:51:31;101533.88;;;21.07;48.80
12213;BME280;6169;44.158;22.788;2023-05-19T20:56:33;101530.19;;;21.22;48.86
12213;BME280;6169;44.158;22.788;2023-05-19T21:01:37;101525.47;;;21.22;49.04
12213;BME280;6169;44.158;22.788;2023-05-19T21:06:39;101533.97;;;20.97;49.23
12213;BME280;6169;44.158;22.788;2023-05-19T21:11:41;101513.84;;;20.81;49.60
12213;BME280;6169;44.158;22.788;2023-05-19T21:16:48;101514.53;;;21.07;48.91
12213;BME280;6169;44.158;22.788;2023-05-19T21:21:50;101505.97;;;20.59;51.04
12213;BME280;6169;44.158;22.788;2023-05-19T21:26:52;101508.50;;;20.55;50.22
12213;BME280;6169;44.158;22.788;2023-05-19T21:31:56;101510.72;;;20.48;51.13
12213;BME280;6169;44.158;22.788;2023-05-19T21:36:59;101509.03;;;20.57;52.40
12213;BME280;6169;44.158;22.788;2023-05-19T21:42:01;101515.16;;;20.49;52.98
12213;BME280;6169;44.158;22.788;2023-05-19T21:47:05;101515.28;;;20.29;54.33
12213;BME280;6169;44.158;22.788;2023-05-19T21:52:07;101516.88;;;20.35;53.83
12213;BME280;6169;44.158;22.788;2023-05-19T21:57:10;101512.53;;;20.08;54.53
12213;BME280;6169;44.158;22.788;2023-05-19T22:02:14;101507.34;;;19.91;54.91
12213;BME280;6169;44.158;22.788;2023-05-19T22:07:16;101504.13;;;19.53;55.53
12213;BME280;6169;44.158;22.788;2023-05-19T22:12:26;101504.69;;;19.50;54.75
12213;BME280;6169;44.158;22.788;2023-05-19T22:17:29;101496.38;;;19.60;55.00
12213;BME280;6169;44.158;22.788;2023-05-19T22:22:31;101486.69;;;19.83;54.76
12213;BME280;6169;44.158;22.788;2023-05-19T22:27:34;101473.22;;;19.67;54.81
12213;BME280;6169;44.158;22.788;2023-05-19T22:32:37;101481.78;;;19.24;56.39
12213;BME280;6169;44.158;22.788;2023-05-19T22:37:40;101416.22;;;18.80;56.59
12213;BME280;6169;44.158;22.788;2023-05-19T22:42:42;101437.72;;;18.93;56.94
12213;BME280;6169;44.158;22.788;2023-05-19T22:47:45;101444.31;;;19.33;54.63
12213;BME280;6169;44.158;22.788;2023-05-19T22:52:48;101449.28;;;18.90;55.86
12213;BME280;6169;44.158;22.788;2023-05-19T22:57:50;101446.78;;;18.74;55.89
12213;BME280;6169;44.158;22.788;2023-05-19T23:02:53;101448.72;;;18.73;56.60
12213;BME280;6169;44.158;22.788;2023-05-19T23:07:57;101455.28;;;18.67;56.11
12213;BME280;6169;44.158;22.788;2023-05-19T23:12:59;101458.66;;;18.89;55.83
12213;BME280;6169;44.158;22.788;2023-05-19T23:18:03;101463.59;;;18.87;55.07
12213;BME280;6169;44.158;22.788;2023-05-19T23:23:08;101469.63;;;18.69;55.80
12213;BME280;6169;44.158;22.788;2023-05-19T23:28:10;101471.25;;;18.49;56.05
12213;BME280;6169;44.158;22.788;2023-05-19T23:33:14;101460.47;;;18.33;55.81
12213;BME280;6169;44.158;22.788;2023-05-19T23:38:16;101461.59;;;18.52;54.81
12213;BME280;6169;44.158;22.788;2023-05-19T23:43:18;101457.50;;;18.55;55.29
12213;BME280;6169;44.158;22.788;2023-05-19T23:48:22;101459.25;;;18.08;58.02
12213;BME280;6169;44.158;22.788;2023-05-19T23:53:24;101435.34;;;18.03;56.26
12213;BME280;6169;44.158;22.788;2023-05-19T23:58:26;101421.09;;;17.64;57.99
